Klik op de webcam foto voor een grotere versieKlik op de webcam foto voor een grotere versie
Of klik hier voor
de webcam video


Bezoek onze andere website:Website of another weatherstation



Het weer levert geen direct gevaar op.    Er zijn geen waarschuwingen afgegeven.

Nabijgelegen vliegvelden - METAR rapporten

   
EBBR - Vaartkom-Leuven
Gewijzigd: 24-05-2018 00:20
Helder    Wind: Zuiden 7 km/h
Helder
Wind: Wind: Zuiden 7 km/h
Temperatuur: 18°C
Dauwpunt: 14°C
Vochtigheid: 78%
Barometer: 1020 hPa
Zicht: meer dan 10 km
Bewolking: Helder
EBBR 232220Z 17004KT 140V200 CAVOK 18/14 Q1020 NOSIG
EBAW - Antwerp
Gewijzigd: 24-05-2018 00:20
Helder    Wind: ONO 13 km/h
Helder
Wind: Wind: ONO 13 km/h
Temperatuur: 19°C
Dauwpunt: 11°C
Vochtigheid: 60%
Barometer: 1020 hPa
Zicht: meer dan 10 km
Bewolking: Helder
EBAW 232220Z AUTO 06007KT 030V100 CAVOK 19/11 Q1020
EBLG - Li├Ęge
Gewijzigd: 24-05-2018 00:20
Helder    Wind: ZW 13 km/h
Helder
Wind: Wind: ZW 13 km/h
Temperatuur: 17°C
Dauwpunt: 14°C
Vochtigheid: 83%
Barometer: 1020 hPa
Zicht: meer dan 10 km
Bewolking: Helder
EBLG 232220Z 22007KT CAVOK 17/14 Q1020 NOSIG
EBCV - Mons/Bergen
Gewijzigd: 24-05-2018 00:25
Regen, Bewolking    Wind: OZO 13 km/h
Regen, Bewolking
Wind: Wind: OZO 13 km/h
Temperatuur: 15°C
Dauwpunt: 15°C
Vochtigheid: 100%
Barometer: 1021 hPa
Bewolking: Bewolking
Zicht: 8 km
Bewolking: Licht bewolkt 731.5 m,
Bewolking 2103.1 m
EBCV 232225Z AUTO 11007KT 8000 RA FEW024/// OVC069/// 15/15 Q1021 BLU
EHBK - Maastricht
Gewijzigd: 24-05-2018 00:25
Gedeeltelijk bewolkt    Wind: Oosten 9 km/h
Gedeeltelijk bewolkt
Wind: Wind: Oosten 9 km/h
Temperatuur: 16°C
Dauwpunt: 12°C
Vochtigheid: 77%
Barometer: 1020 hPa
Bewolking: Gedeeltelijk bewolkt
Zicht: meer dan 10 km
Bewolking: Gedeeltelijk bewolkt
EHBK 232225Z AUTO 08005KT 050V110 9999 NSC 16/12 Q1020
ELLX - Luxemburg
Gewijzigd: 24-05-2018 00:20
Helder    Wind: NNO 13 km/h
Helder
Wind: Wind: NNO 13 km/h
Temperatuur: 15°C
Dauwpunt: 14°C
Vochtigheid: 94%
Barometer: 1019 hPa
Zicht: meer dan 10 km
Bewolking: Helder
ELLX 232220Z 03007KT CAVOK 15/14 Q1019 NOSIG
EBOS - Oostende
Gewijzigd: 24-05-2018 00:20
Nevel, Licht bewolkt    Wind: Noorden 9 km/h
Nevel, Licht bewolkt
Wind: Wind: Noorden 9 km/h
Temperatuur: 15°C
Dauwpunt: 13°C
Vochtigheid: 88%
Barometer: 1020 hPa
Bewolking: Licht bewolkt
Zicht: 5 km
Bewolking: Licht bewolkt 914.4 m
EBOS 232220Z 01005KT 5000 BR FEW030 15/13 Q1020 TEMPO 4000 BR
  

Script ontwikkeld door  Saratoga-weather.org Aangepast voor de template door  Weerstation Leuven

U vindt ons ook hier:

UK Metoffice

WeatherCloud

European Weather Network

Weather Underground

Bernelux Weather Network

AWEKAS

WeatherlinkIP

Citizen Weather Observer Program (CWOP)

HAMweather, WeatherForYou, PWS Weather

Apparatuur in gebruik:

Weer-station
Davis VUE

Weer-programma
Meteobridge

Webleverancier
Robohost

Davis VUE

Meteobridge

Robohost